Time;durP1;ratioP1;P1;durP2;ratioP2;P2;SDS_P1;SDS_P2;PMS_P1;PMS_P2;Temp;Humidity;BMP_temperature;BMP_pressure;BME280_temperature;BME280_humidity;BME280_pressure;Samples;Min_cycle;Max_cycle;Signal;HPM_P1;HPM_P2
2021/10/27 01:22:44;;;;;;;26.55;15.48;;;;;;;4.21;84.73;143298.63;1834924;77;22133;-56
2021/10/27 01:25:19;;;;;;;24.43;16.12;;;;;;;4.17;84.74;143289.86;1834966;77;22547;-60
2021/10/27 01:27:56;;;;;;;29.37;15.98;;;;;;;4.12;85.15;143278.67;1834915;77;22153;-57
2021/10/27 01:30:51;;;;;;;19.70;13.53;;;;;;;4.12;85.50;143278.67;1834905;77;22157;-58
2021/10/27 01:33:26;;;;;;;32.98;15.60;;;;;;;4.13;85.65;143281.14;1834956;77;22136;-58
2021/10/27 01:36:03;;;;;;;25.15;15.35;;;;;;;4.14;85.81;143282.37;1834886;77;22641;-56
2021/10/27 01:38:37;;;;;;;30.82;15.88;;;;;;;4.13;85.93;143281.14;1819540;77;28017;-57
2021/10/27 01:41:13;;;;;;;23.67;14.20;;;;;;;4.16;85.90;143287.39;1834939;77;22141;-58
2021/10/27 01:43:57;;;;;;;25.62;15.45;;;;;;;4.13;86.11;143281.14;1819345;77;28018;-58
2021/10/27 01:46:36;;;;;;;29.72;14.83;;;;;;;4.19;86.28;143294.86;1853521;77;22175;-58
2021/10/27 01:49:30;;;;;;;25.88;15.78;;;;;;;4.16;86.32;143286.14;1853458;77;22136;-57
2021/10/27 01:52:24;;;;;;;23.87;14.18;;;;;;;4.13;86.49;143281.14;1853492;77;22156;-58
2021/10/27 01:54:59;;;;;;;25.70;14.85;;;;;;;4.12;86.55;143278.67;1853523;77;22128;-56
2021/10/27 01:57:33;;;;;;;27.17;15.32;;;;;;;4.12;86.72;143277.39;1834938;77;22211;-58
2021/10/27 02:00:10;;;;;;;28.98;15.13;;;;;;;4.11;86.83;143276.14;1834970;77;22156;-60
2021/10/27 02:02:45;;;;;;;28.17;16.02;;;;;;;4.12;86.88;143277.39;1835016;77;22128;-58
2021/10/27 02:05:20;;;;;;;30.43;16.10;;;;;;;4.11;86.92;143276.14;1853486;77;22577;-56
2021/10/27 02:07:54;;;;;;;23.05;14.53;;;;;;;4.09;87.11;143271.16;1853470;77;22143;-59
2021/10/27 02:10:29;;;;;;;26.60;15.35;;;;;;;4.05;87.29;143259.97;1834926;77;22156;-55
2021/10/27 02:13:25;;;;;;;25.92;15.58;;;;;;;4.00;87.74;143248.72;1834717;77;22581;-58
2021/10/27 02:16:01;;;;;;;25.43;14.03;;;;;;;4.00;87.92;143248.72;1834959;77;22598;-57
2021/10/27 02:18:54;;;;;;;29.00;16.37;;;;;;;4.01;88.04;143249.97;1834949;77;22128;-58
2021/10/27 02:21:30;;;;;;;24.05;15.00;;;;;;;3.99;88.15;143246.20;1819292;77;27980;-58
2021/10/27 02:24:05;;;;;;;23.62;14.07;;;;;;;4.01;88.20;143251.20;1834982;77;22133;-59
2021/10/27 02:26:40;;;;;;;21.00;14.03;;;;;;;3.99;88.32;143246.20;1837724;77;28026;-55
2021/10/27 02:29:36;;;;;;;25.08;15.53;;;;;;;4.07;88.49;143264.91;1834895;77;22159;-55
2021/10/27 02:32:29;;;;;;;23.75;14.43;;;;;;;4.05;88.57;143261.19;1834865;77;22156;-57
2021/10/27 02:35:06;;;;;;;27.07;14.87;;;;;;;4.03;88.65;143256.20;1834948;77;22547;-60
2021/10/27 02:37:41;;;;;;;28.67;16.35;;;;;;;4.02;88.71;143252.44;1834868;77;22595;-58
2021/10/27 02:40:16;;;;;;;25.32;13.95;;;;;;;3.98;88.87;143243.72;1853533;77;22598;-57
2021/10/27 02:42:51;;;;;;;24.45;15.13;;;;;;;3.99;89.11;143246.20;1834943;77;22547;-58
2021/10/27 02:45:26;;;;;;;24.67;14.38;;;;;;;4.00;89.11;143247.48;1853472;77;22135;-56
2021/10/27 02:48:21;;;;;;;24.85;16.40;;;;;;;4.00;89.19;143247.48;1834902;77;22128;-56
2021/10/27 02:50:56;;;;;;;28.47;15.30;;;;;;;3.98;89.33;143243.72;1834956;77;22140;-57
2021/10/27 02:53:31;;;;;;;24.87;15.65;;;;;;;3.94;89.49;143233.72;1834930;77;22136;-56
2021/10/27 02:56:06;;;;;;;22.77;13.93;;;;;;;3.94;89.68;143233.72;1819346;77;28017;-58
2021/10/27 02:59:00;;;;;;;24.52;14.85;;;;;;;4.01;89.87;143249.97;1853467;77;22124;-58
2021/10/27 03:01:35;;;;;;;23.38;15.23;;;;;;;4.01;89.95;143251.20;1819259;77;38343;-57
2021/10/27 03:04:11;;;;;;;31.85;13.95;;;;;;;4.07;89.99;143264.91;1853501;77;22160;-58
2021/10/27 03:06:46;;;;;;;25.52;14.95;;;;;;;4.05;90.05;143261.19;1819334;77;28024;-55
2021/10/27 03:09:21;;;;;;;22.37;14.00;;;;;;;4.11;90.13;143276.14;1848173;77;22179;-57
2021/10/27 03:11:56;;;;;;;29.42;15.40;;;;;;;4.11;90.09;143276.14;1853478;77;22135;-57
2021/10/27 03:14:31;;;;;;;24.10;14.50;;;;;;;4.09;90.13;143271.16;1834953;77;22136;-60
2021/10/27 03:17:06;;;;;;;27.48;13.05;;;;;;;4.07;90.21;143264.91;1834937;77;22124;-56
2021/10/27 03:19:41;;;;;;;23.42;15.18;;;;;;;4.03;90.36;143256.20;1853497;77;22135;-57
2021/10/27 03:22:16;;;;;;;27.85;15.88;;;;;;;4.02;90.50;143253.72;1843330;78;22132;-57
2021/10/27 03:24:51;;;;;;;27.30;16.30;;;;;;;4.02;90.80;143253.72;1834930;77;22165;-59
2021/10/27 03:27:26;;;;;;;28.60;15.95;;;;;;;4.00;90.94;143248.72;1853483;77;22160;-60
2021/10/27 03:30:01;;;;;;;26.15;15.90;;;;;;;3.97;91.04;143241.25;1835037;77;22132;-59
2021/10/27 03:32:55;;;;;;;29.70;16.45;;;;;;;3.97;91.18;143239.97;1834867;77;22185;-56
2021/10/27 03:35:30;;;;;;;29.07;16.15;;;;;;;3.95;91.40;143236.25;1834909;77;22539;-58
2021/10/27 03:38:11;;;;;;;25.40;14.98;;;;;;;3.96;91.38;143238.72;1843137;77;22191;-59
2021/10/27 03:40:46;;;;;;;23.42;15.23;;;;;;;3.93;91.54;143230.02;1853578;77;22207;-55
2021/10/27 03:43:21;;;;;;;25.62;15.75;;;;;;;3.93;91.76;143230.02;1834995;77;22157;-56
2021/10/27 03:45:56;;;;;;;27.50;15.28;;;;;;;3.90;91.86;143223.78;1843432;77;22164;-61
2021/10/27 03:48:31;;;;;;;26.10;15.38;;;;;;;3.89;91.88;143222.53;1800727;79;22184;-57
2021/10/27 03:51:10;;;;;;;34.03;16.50;;;;;;;3.92;92.04;143228.78;1834954;77;22132;-57
2021/10/27 03:53:42;;;;;;;25.80;16.10;;;;;;;3.91;92.09;143226.25;1819524;77;28013;-57
2021/10/27 03:56:18;;;;;;;29.02;15.05;;;;;;;3.95;91.99;143236.25;1834951;77;22133;-56
2021/10/27 03:58:53;;;;;;;28.70;15.20;;;;;;;3.94;92.08;143233.72;1837746;77;28042;-55
2021/10/27 04:01:28;;;;;;;28.15;15.88;;;;;;;3.99;92.02;143244.97;1834966;77;22161;-58
2021/10/27 04:04:03;;;;;;;28.23;16.45;;;;;;;3.96;92.03;143238.72;1834928;77;22129;-57
2021/10/27 04:06:38;;;;;;;33.33;16.73;;;;;;;3.92;92.06;143228.78;1837705;77;28436;-56
2021/10/27 04:09:32;;;;;;;29.45;15.70;;;;;;;3.94;92.09;143233.72;1828635;77;22148;-56
2021/10/27 04:12:34;;;;;;;26.85;16.37;;;;;;;3.89;92.21;143221.25;1833575;77;22205;-57
2021/10/27 04:15:11;;;;;;;25.92;16.32;;;;;;;3.86;92.37;143215.02;1834949;77;22132;-57
2021/10/27 04:17:46;;;;;;;32.42;17.25;;;;;;;3.84;92.43;143208.78;1834906;77;22566;-58
2021/10/27 04:20:21;;;;;;;27.62;17.42;;;;;;;3.80;92.47;143198.83;1848127;77;22210;-58
2021/10/27 04:23:15;;;;;;;30.30;16.50;;;;;;;3.76;92.60;143188.84;1834869;77;22196;-58
2021/10/27 04:25:56;;;;;;;32.95;16.45;;;;;;;3.75;92.78;143186.36;1834121;77;22160;-59
2021/10/27 04:28:55;;;;;;;31.40;16.15;;;;;;;3.77;92.93;143191.36;1834053;77;22168;-57
2021/10/27 04:31:49;;;;;;;28.80;15.80;;;;;;;3.75;93.02;143187.59;1834880;77;22156;-59
2021/10/27 04:34:24;;;;;;;24.23;15.05;;;;;;;3.72;92.96;143180.13;1822415;77;22259;-58
2021/10/27 04:36:59;;;;;;;25.72;16.00;;;;;;;3.71;93.02;143177.61;1818452;77;22168;-55
2021/10/27 04:39:35;;;;;;;25.85;16.15;;;;;;;3.69;93.17;143173.89;1834976;77;22136;-56
2021/10/27 04:42:10;;;;;;;24.25;15.45;;;;;;;3.68;93.28;143170.13;1806470;77;22219;-58
2021/10/27 04:44:45;;;;;;;28.45;16.62;;;;;;;3.70;93.29;143175.12;1820854;77;22171;-55
2021/10/27 04:47:20;;;;;;;29.82;17.87;;;;;;;3.70;93.28;143176.38;1834819;77;22132;-59
2021/10/27 04:49:55;;;;;;;30.17;17.73;;;;;;;3.70;93.24;143176.38;1810693;77;22294;-60
2021/10/27 04:52:29;;;;;;;28.12;17.30;;;;;;;3.71;93.29;143177.61;1821020;77;22168;-60
2021/10/27 04:55:10;;;;;;;25.30;15.50;;;;;;;3.75;93.33;143186.36;1827553;77;22172;-56
2021/10/27 04:57:46;;;;;;;31.15;18.12;;;;;;;3.78;93.29;143193.84;1823058;77;22719;-58
2021/10/27 05:00:20;;;;;;;26.87;17.12;;;;;;;3.82;93.20;143203.84;1821132;77;22124;-57
2021/10/27 05:03:14;;;;;;;32.85;18.67;;;;;;;3.83;93.11;143207.55;1819043;77;22199;-57
2021/10/27 05:05:53;;;;;;;36.10;18.30;;;;;;;3.87;93.07;143217.55;1815600;77;22195;-57
2021/10/27 05:08:26;;;;;;;35.85;19.67;;;;;;;3.94;93.06;143233.72;1834690;77;22235;-58
2021/10/27 05:11:26;;;;;;;43.25;21.95;;;;;;;4.02;92.84;143253.72;1833893;77;22598;-59
2021/10/27 05:14:07;;;;;;;38.17;20.27;;;;;;;4.05;92.67;143261.19;1825964;78;22217;-59
2021/10/27 05:16:42;;;;;;;40.25;20.15;;;;;;;4.19;92.70;143293.62;1820640;77;22223;-57
2021/10/27 05:19:17;;;;;;;34.70;18.75;;;;;;;4.77;92.53;143435.88;1832027;77;22151;-57
2021/10/27 05:21:52;;;;;;;33.55;18.85;;;;;;;5.59;90.62;143635.66;1817312;77;22172;-57
2021/10/27 05:24:34;;;;;;;23.27;14.33;;;;;;;6.37;87.90;143825.64;1784184;79;22236;-58
2021/10/27 05:27:30;;;;;;;24.60;16.15;;;;;;;7.15;84.96;144018.19;1809505;77;22206;-57
2021/10/27 05:30:06;;;;;;;31.90;17.52;;;;;;;7.85;82.26;144188.33;1816036;77;22191;-59
2021/10/27 05:33:00;;;;;;;27.20;17.48;;;;;;;8.54;77.92;144356.13;1824537;77;22254;-56
2021/10/27 05:35:41;;;;;;;28.45;16.20;;;;;;;9.15;75.79;144506.41;1810013;77;22168;-58
2021/10/27 05:38:36;;;;;;;30.75;17.37;;;;;;;9.78;72.25;144661.80;1834752;77;22181;-57
2021/10/27 05:41:31;;;;;;;29.37;16.45;;;;;;;10.38;67.53;144808.56;1834805;77;22274;-56
2021/10/27 05:44:06;;;;;;;30.60;17.45;;;;;;;10.83;66.43;144917.66;1834796;77;22205;-60
2021/10/27 05:47:07;;;;;;;27.37;15.40;;;;;;;11.38;64.04;145053.19;1820045;77;22215;-61
2021/10/27 05:49:52;;;;;;;24.02;16.23;;;;;;;11.86;61.43;145169.94;1819360;77;27970;-59
2021/10/27 05:55:34;;;;;;;21.40;14.03;;;;;;;12.95;57.50;145437.48;1834807;77;22576;-60
2021/10/27 05:58:29;;;;;;;23.85;13.22;;;;;;;13.40;56.18;145548.16;1834598;77;22187;-55
2021/10/27 06:01:22;;;;;;;17.45;11.65;;;;;;;13.80;54.26;145647.47;1853319;77;22155;-60
2021/10/27 06:04:04;;;;;;;21.60;13.05;;;;;;;14.21;52.95;145746.83;1853376;77;22246;-59
2021/10/27 06:06:46;;;;;;;21.62;12.90;;;;;;;14.48;51.26;145814.77;1833905;77;22219;-58
2021/10/27 06:09:21;;;;;;;21.00;13.35;;;;;;;14.81;50.47;145895.34;1834841;77;22570;-58
2021/10/27 06:12:01;;;;;;;21.57;13.70;;;;;;;15.14;49.97;145975.91;1819081;77;28016;-59
2021/10/27 06:14:34;;;;;;;14.55;10.48;;;;;;;15.72;48.04;146118.19;1853563;77;22562;-57
2021/10/27 06:17:08;;;;;;;17.23;11.93;;;;;;;16.08;47.41;146206.34;1834775;77;22587;-59
2021/10/27 06:19:43;;;;;;;23.02;14.07;;;;;;;16.62;46.12;146341.17;1853491;77;22577;-57
2021/10/27 06:22:20;;;;;;;20.27;13.00;;;;;;;17.16;44.39;146472.30;1834884;77;22562;-59
2021/10/27 06:24:55;;;;;;;23.42;13.08;;;;;;;17.56;43.92;146573.16;1823934;77;22148;-59
2021/10/27 06:27:42;;;;;;;20.65;12.45;;;;;;;18.05;42.33;146693.02;1828038;77;22174;-59
2021/10/27 06:30:29;;;;;;;21.05;13.32;;;;;;;18.33;41.57;146762.41;1817077;77;22192;-59
2021/10/27 06:36:17;;;;;;;21.07;12.47;;;;;;;18.92;39.87;146906.31;1814988;77;22391;-57
2021/10/27 06:47:14;;;;;;;21.15;10.82;;;;;;;20.24;36.84;147232.19;1809423;77;22196;-56
2021/10/27 06:49:49;;;;;;;16.90;10.68;;;;;;;20.31;36.46;147249.88;1843312;77;22557;-59
2021/10/27 06:52:24;;;;;;;16.75;10.72;;;;;;;20.30;36.74;147247.33;1841231;77;22242;-58
2021/10/27 06:55:18;;;;;;;15.08;10.10;;;;;;;20.62;35.73;147327.00;1808334;77;22239;-56
2021/10/27 06:57:55;;;;;;;16.25;9.38;;;;;;;20.63;35.88;147328.25;1817629;77;22259;-59
2021/10/27 07:18:05;;;;;;;16.32;9.43;;;;;;;21.85;33.04;147630.47;1853379;77;22594;-60
2021/10/27 07:21:08;;;;;;;15.83;9.60;;;;;;;22.07;32.96;147684.87;1853369;77;22666;-60
2021/10/27 07:24:02;;;;;;;14.63;9.73;;;;;;;22.11;32.93;147695.02;1826317;77;22549;-58
2021/10/27 07:26:59;;;;;;;14.95;9.55;;;;;;;22.61;31.84;147819.03;1834943;77;22160;-58
2021/10/27 07:29:34;;;;;;;16.15;9.75;;;;;;;22.59;31.91;147813.95;1834697;77;22180;-61
2021/10/27 07:32:29;;;;;;;12.93;9.05;;;;;;;22.71;31.53;147843.08;1834797;77;22216;-58
2021/10/27 07:41:00;;;;;;;15.38;8.93;;;;;;;23.61;30.41;148067.23;1834897;77;22594;-61
2021/10/27 07:43:35;;;;;;;17.23;10.32;;;;;;;23.66;30.14;148077.33;1837699;77;28025;-60
2021/10/27 07:46:11;;;;;;;16.42;9.78;;;;;;;23.69;30.01;148086.22;1834614;77;20104;-59
2021/10/27 07:48:46;;;;;;;13.18;9.48;;;;;;;23.68;29.83;148083.66;1834775;77;22330;-60
2021/10/27 07:51:23;;;;;;;17.40;10.20;;;;;;;23.58;30.04;148059.64;1834630;77;22184;-59
2021/10/27 07:53:58;;;;;;;14.27;10.20;;;;;;;23.34;30.00;147998.84;1819317;77;28104;-60
2021/10/27 07:56:39;;;;;;;15.63;10.08;;;;;;;23.22;30.24;147969.70;1853346;77;22589;-57
2021/10/27 07:59:40;;;;;;;14.87;10.13;;;;;;;22.70;30.72;147841.83;1833899;77;22102;-59
2021/10/27 08:02:17;;;;;;;15.03;10.43;;;;;;;22.24;31.33;147727.94;1853392;77;22262;-59
2021/10/27 08:04:53;;;;;;;17.07;10.63;;;;;;;21.93;31.73;147649.44;1834748;77;20356;-57
2021/10/27 08:07:28;;;;;;;14.87;10.23;;;;;;;21.38;32.40;147515.41;1834747;77;22180;-60
2021/10/27 08:10:05;;;;;;;16.45;11.33;;;;;;;20.91;33.06;147399.02;1834772;77;22322;-58
2021/10/27 08:12:42;;;;;;;15.65;11.30;;;;;;;20.24;34.05;147232.19;1834844;77;22334;-59
2021/10/27 08:15:19;;;;;;;21.10;12.03;;;;;;;19.50;35.28;147050.25;1834622;77;22300;-58
2021/10/27 08:18:17;;;;;;;15.90;11.03;;;;;;;18.93;36.26;146910.12;1853342;77;22614;-60
2021/10/27 08:20:52;;;;;;;19.32;11.70;;;;;;;18.26;37.33;146743.47;1834745;77;22185;-58
2021/10/27 08:23:47;;;;;;;20.37;11.48;;;;;;;17.44;38.68;146542.89;1834924;77;22156;-59
2021/10/27 08:26:25;;;;;;;21.02;12.00;;;;;;;16.82;39.82;146390.37;1834911;77;20218;-60
2021/10/27 08:29:05;;;;;;;18.12;11.10;;;;;;;16.57;40.61;146328.56;1853377;77;22187;-58
2021/10/27 08:32:09;;;;;;;20.65;12.53;;;;;;;16.44;41.26;146297.06;1800483;79;22599;-59
2021/10/27 08:34:58;;;;;;;22.93;14.35;;;;;;;16.43;41.66;146293.27;1828848;77;22191;-58
2021/10/27 08:37:52;;;;;;;17.80;12.82;;;;;;;16.41;41.94;146289.52;1834752;77;22623;-59
2021/10/27 08:40:27;;;;;;;19.45;13.40;;;;;;;16.41;42.18;146289.52;1834674;77;22220;-56
2021/10/27 08:43:03;;;;;;;21.17;13.65;;;;;;;16.23;42.22;146245.42;1834830;77;22164;-62
2021/10/27 08:45:40;;;;;;;24.63;14.38;;;;;;;15.77;42.88;146130.78;1853387;77;22570;-60
2021/10/27 08:48:39;;;;;;;22.45;13.85;;;;;;;15.36;43.56;146031.25;1833170;77;22208;-59
2021/10/27 08:51:27;;;;;;;20.80;13.98;;;;;;;15.27;43.94;146007.37;1834801;77;22176;-60
2021/10/27 08:54:09;;;;;;;23.80;14.30;;;;;;;15.19;44.38;145988.48;1834115;77;22615;-58
2021/10/27 08:56:45;;;;;;;21.12;14.18;;;;;;;14.93;44.95;145924.27;1837867;77;28015;-60
2021/10/27 08:59:45;;;;;;;23.18;14.28;;;;;;;14.74;45.51;145877.72;1834718;77;22156;-59
2021/10/27 09:08:34;;;;;;;22.37;14.93;;;;;;;13.67;47.85;145614.80;1826278;77;22208;-59
2021/10/27 09:55:25;;;;;;;25.35;15.65;;;;;;;11.81;54.18;145157.38;1833951;77;22168;-57
2021/10/27 10:05:53;;;;;;;27.65;15.70;;;;;;;12.36;53.47;145293.02;1853439;77;22135;-59
2021/10/27 10:08:50;;;;;;;27.85;15.38;;;;;;;12.48;52.92;145321.92;1834846;77;22140;-58
2021/10/27 10:12:06;;;;;;;25.75;16.95;;;;;;;12.59;52.65;145349.53;1811676;77;27993;-57
2021/10/27 10:15:01;;;;;;;24.07;14.75;;;;;;;12.68;52.29;145372.17;1853610;77;22213;-59
2021/10/27 10:17:56;;;;;;;26.65;15.63;;;;;;;12.78;51.87;145397.30;1834873;77;22185;-58
2021/10/27 10:20:52;;;;;;;26.90;15.28;;;;;;;12.81;51.58;145404.83;1834749;77;22192;-58
2021/10/27 10:23:45;;;;;;;27.52;15.95;;;;;;;12.75;51.64;145389.77;1819405;77;28019;-58
2021/10/27 10:26:41;;;;;;;24.27;14.98;;;;;;;12.88;51.53;145419.94;1834906;77;22133;-56
2021/10/27 10:29:49;;;;;;;23.50;14.30;;;;;;;12.89;51.23;145422.42;1853428;77;22554;-58
2021/10/27 10:32:47;;;;;;;22.73;14.70;;;;;;;12.93;51.35;145432.50;1834827;77;22618;-59
2021/10/27 10:35:32;;;;;;;22.87;14.73;;;;;;;12.98;51.13;145445.06;1853587;77;22154;-61
2021/10/27 10:43:59;;;;;;;25.35;15.60;;;;;;;12.85;51.21;145412.34;1853369;77;22159;-59
2021/10/27 11:38:39;;;;;;;36.75;19.75;;;;;;;11.61;56.53;145108.41;1834765;77;22164;-59
2021/10/27 11:41:35;;;;;;;30.40;19.67;;;;;;;11.31;57.33;145035.59;1834915;77;22129;-55
2021/10/27 11:44:53;;;;;;;30.60;19.12;;;;;;;11.21;57.83;145010.50;1834807;77;22141;-59
2021/10/27 11:47:45;;;;;;;32.73;18.30;;;;;;;11.20;58.31;145008.02;1853450;77;22170;-58
2021/10/27 11:50:37;;;;;;;33.08;20.43;;;;;;;11.16;58.41;144999.20;1853704;77;22199;-59
2021/10/27 11:53:39;;;;;;;37.08;20.75;;;;;;;11.18;58.79;145002.98;1826220;77;22627;-59
2021/10/27 11:56:34;;;;;;;36.85;20.10;;;;;;;11.20;58.90;145009.25;1853311;77;22159;-59
2021/10/27 11:59:49;;;;;;;35.63;20.02;;;;;;;11.29;58.81;145030.56;1835032;77;22140;-57
2021/10/27 12:09:01;;;;;;;34.98;20.97;;;;;;;11.46;58.70;145073.25;1834752;77;22161;-59
2021/10/27 12:17:32;;;;;;;32.95;20.80;;;;;;;11.27;60.70;145026.83;1853383;77;22586;-57
2021/10/27 12:20:13;;;;;;;34.15;23.75;;;;;;;11.07;61.75;144977.89;1818364;77;28045;-59
2021/10/27 12:23:17;;;;;;;37.28;23.42;;;;;;;11.03;62.65;144966.59;1834773;77;22161;-59
2021/10/27 12:26:06;;;;;;;31.42;21.87;;;;;;;10.96;63.47;144950.25;1853463;77;22163;-57
2021/10/27 12:28:41;;;;;;;42.03;22.00;;;;;;;10.83;64.23;144918.89;1834864;77;22218;-58
2021/10/27 12:31:35;;;;;;;39.83;22.75;;;;;;;10.70;64.78;144886.28;1780647;79;22234;-58
2021/10/27 12:34:27;;;;;;;34.88;22.10;;;;;;;10.65;65.18;144875.00;1833307;77;22649;-59
2021/10/27 12:37:38;;;;;;;38.28;22.25;;;;;;;10.67;65.64;144877.53;1819669;77;22163;-58
2021/10/27 12:43:18;;;;;;;34.95;21.82;;;;;;;10.81;65.94;144912.63;1817292;77;22182;-56
2021/10/27 12:45:55;;;;;;;35.88;23.00;;;;;;;10.76;65.89;144900.08;1867897;76;22128;-59
2021/10/27 12:48:49;;;;;;;36.70;23.75;;;;;;;10.68;66.04;144881.27;1819341;77;28021;-60
2021/10/27 12:51:42;;;;;;;34.78;21.37;;;;;;;10.70;66.07;144885.05;1834968;77;22221;-58
2021/10/27 12:54:28;;;;;;;35.38;23.22;;;;;;;10.62;66.16;144867.47;1852340;77;22231;-57
2021/10/27 12:57:10;;;;;;;39.42;23.22;;;;;;;10.63;66.51;144870.02;1853250;77;22638;-59
2021/10/27 12:59:46;;;;;;;40.08;21.42;;;;;;;10.63;66.55;144870.02;1835040;77;22164;-59
2021/10/27 13:02:26;;;;;;;37.70;23.95;;;;;;;10.68;66.41;144880.02;1837571;77;28029;-59
2021/10/27 13:05:10;;;;;;;34.30;20.35;;;;;;;10.68;66.49;144880.02;1834709;77;22578;-59
2021/10/27 13:08:02;;;;;;;43.48;20.40;;;;;;;10.56;66.84;144851.20;1834958;77;22133;-57
2021/10/27 13:13:30;;;;;;;32.15;18.77;;;;;;;10.39;68.46;144809.80;1834918;77;22164;-57
2021/10/27 13:22:34;;;;;;;36.98;20.97;;;;;;;10.12;70.40;144743.28;1853508;77;22155;-59
2021/10/27 13:31:15;;;;;;;35.52;20.43;;;;;;;9.96;72.36;144704.42;1834867;77;22156;-59
2021/10/27 13:33:54;;;;;;;37.10;19.00;;;;;;;9.82;73.08;144669.31;1853328;77;22565;-58
2021/10/27 13:36:48;;;;;;;31.65;19.45;;;;;;;9.74;73.71;144651.80;1834845;77;22571;-58
2021/10/27 13:39:24;;;;;;;36.75;20.80;;;;;;;9.71;74.03;144643.00;1834868;77;22152;-58
2021/10/27 13:42:02;;;;;;;38.00;21.57;;;;;;;9.65;74.29;144627.97;1853418;77;22159;-57
2021/10/27 13:44:54;;;;;;;35.15;22.00;;;;;;;9.59;74.69;144612.91;1834153;77;22134;-59
2021/10/27 13:47:23;;;;;;;38.45;22.22;;;;;;;9.56;74.95;144606.64;1834946;77;22148;-59
2021/10/27 14:07:41;;;;;;;36.38;20.82;;;;;;;9.26;76.49;144532.70;1834891;77;22156;-58
2021/10/27 14:10:45;;;;;;;38.65;21.02;;;;;;;9.19;76.62;144516.45;1834979;77;22140;-58
2021/10/27 14:50:33;;;;;;;29.67;17.48;;;;;;;9.12;78.74;144498.91;1853502;77;22127;-56
2021/10/27 15:34:03;;;;;;;36.98;22.45;;;;;;;9.31;79.06;144546.53;1833920;77;22218;-57
2021/10/27 15:42:25;;;;;;;30.60;19.12;;;;;;;9.40;78.78;144567.81;1834158;77;22650;-58
2021/10/27 15:53:19;;;;;;;31.15;19.15;;;;;;;9.44;78.81;144577.84;1807374;77;28167;-61
2021/10/27 15:56:13;;;;;;;26.70;17.25;;;;;;;9.49;78.74;144589.09;1815310;77;22187;-57
2021/10/27 15:59:07;;;;;;;31.27;18.10;;;;;;;9.44;78.77;144576.56;1834869;77;22136;-57
2021/10/27 16:01:44;;;;;;;28.67;17.37;;;;;;;9.38;78.93;144562.78;1834897;77;22207;-59
2021/10/27 16:04:40;;;;;;;32.50;18.50;;;;;;;9.37;79.05;144559.06;1807539;77;28168;-58
2021/10/27 16:07:16;;;;;;;29.57;17.05;;;;;;;9.43;79.07;144574.06;1853419;77;22172;-60
2021/10/27 16:10:16;;;;;;;28.47;16.52;;;;;;;9.43;78.87;144575.31;1834209;77;22554;-58
2021/10/27 16:13:10;;;;;;;25.77;16.70;;;;;;;9.40;78.86;144566.56;1834858;77;22168;-57
2021/10/27 16:16:06;;;;;;;28.10;18.15;;;;;;;9.39;78.67;144564.03;1819034;77;38322;-57
2021/10/27 16:18:42;;;;;;;28.30;17.87;;;;;;;9.43;78.43;144574.06;1834809;77;22567;-58
2021/10/27 16:21:17;;;;;;;32.83;20.00;;;;;;;9.44;78.13;144576.56;1819238;77;28031;-66
2021/10/27 16:23:52;;;;;;;38.25;18.48;;;;;;;9.50;77.86;144591.63;1834897;77;22607;-57
2021/10/27 16:26:27;;;;;;;31.75;20.62;;;;;;;9.52;77.12;144596.64;1827939;77;28094;-57
2021/10/27 16:29:21;;;;;;;33.33;19.95;;;;;;;9.59;76.71;144612.91;1834796;77;22161;-57
2021/10/27 16:31:56;;;;;;;36.35;18.70;;;;;;;9.56;76.39;144606.64;1834917;77;22137;-58
2021/10/27 16:34:31;;;;;;;35.40;19.27;;;;;;;9.53;76.19;144599.13;1853459;77;22143;-57
2021/10/27 16:37:06;;;;;;;27.80;17.85;;;;;;;9.52;76.06;144596.64;1834801;77;22137;-58
2021/10/27 16:39:43;;;;;;;34.27;17.73;;;;;;;9.51;75.55;144595.36;1852284;77;22211;-57
2021/10/27 16:45:04;;;;;;;30.27;17.30;;;;;;;9.47;75.42;144584.11;1834661;77;22136;-58
2021/10/27 16:48:05;;;;;;;29.20;17.73;;;;;;;9.41;75.35;144570.28;1833970;77;22306;-57
2021/10/27 16:50:40;;;;;;;28.02;18.75;;;;;;;9.37;75.42;144559.06;1837656;77;28430;-58
2021/10/27 16:53:41;;;;;;;28.47;17.05;;;;;;;9.38;75.47;144561.53;1833874;77;22606;-59
2021/10/27 16:56:16;;;;;;;27.70;17.30;;;;;;;9.28;75.49;144538.97;1834809;77;22156;-58
2021/10/27 16:59:10;;;;;;;27.80;18.25;;;;;;;9.20;75.64;144517.69;1834908;77;22160;-59
2021/10/27 17:01:46;;;;;;;31.37;17.62;;;;;;;9.10;75.77;144495.13;1853285;77;22168;-56
2021/10/27 17:04:21;;;;;;;28.47;18.35;;;;;;;9.03;75.92;144477.63;1819358;77;38430;-58
2021/10/27 17:09:34;;;;;;;28.85;17.32;;;;;;;8.95;76.49;144456.30;1853254;77;22163;-57
2021/10/27 17:12:16;;;;;;;24.70;17.00;;;;;;;8.90;76.69;144445.02;1833905;77;22191;-58
2021/10/27 17:14:51;;;;;;;30.50;18.07;;;;;;;8.90;76.94;144446.31;1853362;77;22562;-59
2021/10/27 17:17:51;;;;;;;28.50;17.95;;;;;;;8.93;77.22;144451.28;1833896;77;22602;-58
2021/10/27 17:20:25;;;;;;;29.90;18.37;;;;;;;8.93;77.33;144452.58;1834879;77;22610;-57
2021/10/27 17:23:03;;;;;;;28.02;17.35;;;;;;;8.96;77.33;144458.83;1834895;77;22164;-60
2021/10/27 17:25:39;;;;;;;28.80;17.05;;;;;;;8.97;77.36;144462.56;1831421;77;22571;-58
2021/10/27 17:28:21;;;;;;;29.45;17.00;;;;;;;8.98;77.32;144463.81;1814618;77;22195;-58
2021/10/27 17:31:17;;;;;;;32.03;17.73;;;;;;;8.98;77.42;144465.09;1817617;77;22196;-56
2021/10/27 17:34:18;;;;;;;32.38;18.52;;;;;;;9.00;77.48;144470.06;1821568;77;22227;-57
2021/10/27 17:37:18;;;;;;;31.95;18.35;;;;;;;9.04;77.42;144478.87;1822971;77;22171;-58
2021/10/27 17:39:53;;;;;;;35.28;18.05;;;;;;;9.05;77.39;144481.34;1841051;77;22589;-59
2021/10/27 17:42:28;;;;;;;32.15;19.12;;;;;;;9.10;77.35;144493.88;1799038;77;22215;-57
2021/10/27 17:45:25;;;;;;;30.35;18.62;;;;;;;9.12;77.14;144500.14;1818336;77;22536;-54
2021/10/27 17:48:07;;;;;;;30.08;18.12;;;;;;;9.15;77.00;144505.16;1832185;77;22243;-56
2021/10/27 17:50:55;;;;;;;34.25;19.87;;;;;;;9.16;76.88;144507.66;1818391;77;22614;-57
2021/10/27 17:59:46;;;;;;;34.20;20.62;;;;;;;9.28;76.75;144538.97;1837414;77;22143;-58
2021/10/27 18:02:46;;;;;;;36.80;21.07;;;;;;;9.25;76.64;144531.47;1802323;77;22242;-57
2021/10/27 18:05:41;;;;;;;36.00;22.52;;;;;;;9.23;76.68;144526.44;1853386;77;22136;-57
2021/10/27 18:08:44;;;;;;;39.38;25.02;;;;;;;9.22;76.66;144523.95;1853454;77;22606;-58
2021/10/27 18:11:23;;;;;;;43.17;25.80;;;;;;;9.21;76.55;144521.47;1853407;77;22143;-57
2021/10/27 18:14:02;;;;;;;46.35;28.23;;;;;;;9.21;76.56;144521.47;1834877;77;22211;-56
2021/10/27 18:17:00;;;;;;;55.70;32.00;;;;;;;9.20;76.52;144517.69;1834742;77;22216;-59
2021/10/27 18:19:40;;;;;;;63.73;39.42;;;;;;;9.18;76.62;144513.91;1819400;77;28018;-56
2021/10/27 18:22:24;;;;;;;60.10;36.17;;;;;;;9.23;76.74;144526.44;1834789;77;22156;-58
2021/10/27 18:25:05;;;;;;;55.65;33.63;;;;;;;9.23;76.87;144525.19;1834780;77;22168;-58
2021/10/27 18:36:29;;;;;;;53.73;31.55;;;;;;;9.34;76.81;144554.03;1818105;77;22226;-59
2021/10/27 18:39:16;;;;;;;59.75;32.23;;;;;;;9.33;76.78;144551.50;1818299;77;22231;-59
2021/10/27 18:42:05;;;;;;;53.63;33.18;;;;;;;9.33;76.74;144551.50;1818288;77;22638;-58
2021/10/27 18:44:36;;;;;;;60.10;34.53;;;;;;;9.33;76.69;144550.25;1837631;77;22167;-55
2021/10/27 18:47:38;;;;;;;57.43;32.88;;;;;;;9.30;76.67;144543.98;1816258;77;22642;-57
2021/10/27 18:50:19;;;;;;;61.90;34.10;;;;;;;9.24;76.74;144528.97;1817316;77;22239;-57
2021/10/27 18:56:23;;;;;;;59.70;34.88;;;;;;;9.14;77.02;144503.92;1818340;77;22176;-58
2021/10/27 19:02:13;;;;;;;69.17;38.15;;;;;;;9.14;77.31;144503.92;1817964;77;22176;-59
2021/10/27 19:11:19;;;;;;;61.88;35.30;;;;;;;9.10;77.32;144493.88;1847962;77;22154;-58
2021/10/27 19:16:39;;;;;;;61.18;33.95;;;;;;;9.02;77.48;144473.84;1835014;77;22124;-61
2021/10/27 19:19:35;;;;;;;52.17;33.33;;;;;;;9.00;77.65;144468.83;1819261;77;28457;-56